sensor_id;sensor_type;location;lat;lon;timestamp;pressure;altitude;pressure_sealevel;temperature;humidity
71772;BME280;59606;52.138;5.424;2024-02-26T00:01:51;100087.22;;;5.14;100.00
71772;BME280;59606;52.138;5.424;2024-02-26T00:04:18;100101.88;;;5.13;100.00
71772;BME280;59606;52.138;5.424;2024-02-26T00:06:45;100100.28;;;5.11;100.00
71772;BME280;59606;52.138;5.424;2024-02-26T00:09:11;100101.09;;;5.11;100.00
71772;BME280;59606;52.138;5.424;2024-02-26T00:11:38;100101.19;;;5.10;100.00
71772;BME280;59606;52.138;5.424;2024-02-26T00:14:05;100103.03;;;5.06;100.00
71772;BME280;59606;52.138;5.424;2024-02-26T00:16:32;100111.56;;;5.08;100.00
71772;BME280;59606;52.138;5.424;2024-02-26T00:18:58;100102.28;;;5.04;100.00
71772;BME280;59606;52.138;5.424;2024-02-26T00:21:25;100112.66;;;5.03;100.00
71772;BME280;59606;52.138;5.424;2024-02-26T00:23:53;100111.91;;;5.01;100.00
71772;BME280;59606;52.138;5.424;2024-02-26T00:26:20;100115.44;;;4.98;100.00
71772;BME280;59606;52.138;5.424;2024-02-26T00:28:46;100115.44;;;4.98;100.00
71772;BME280;59606;52.138;5.424;2024-02-26T00:31:13;100119.81;;;4.96;100.00
71772;BME280;59606;52.138;5.424;2024-02-26T00:33:40;100116.38;;;4.97;100.00
71772;BME280;59606;52.138;5.424;2024-02-26T00:36:07;100116.41;;;4.95;100.00
71772;BME280;59606;52.138;5.424;2024-02-26T00:38:34;100118.16;;;4.95;100.00
71772;BME280;59606;52.138;5.424;2024-02-26T00:41:02;100119.06;;;4.94;100.00
71772;BME280;59606;52.138;5.424;2024-02-26T00:43:29;100113.13;;;4.92;100.00
71772;BME280;59606;52.138;5.424;2024-02-26T00:45:55;100118.38;;;4.90;100.00
71772;BME280;59606;52.138;5.424;2024-02-26T00:48:22;100119.25;;;4.89;100.00
71772;BME280;59606;52.138;5.424;2024-02-26T00:50:49;100121.00;;;4.89;100.00
71772;BME280;59606;52.138;5.424;2024-02-26T00:53:15;100119.41;;;4.86;100.00
71772;BME280;59606;52.138;5.424;2024-02-26T00:55:42;100116.03;;;4.84;100.00
71772;BME280;59606;52.138;5.424;2024-02-26T00:58:09;100123.84;;;4.83;100.00
71772;BME280;59606;52.138;5.424;2024-02-26T01:00:35;100117.97;;;4.79;100.00
71772;BME280;59606;52.138;5.424;2024-02-26T01:03:02;100117.09;;;4.80;100.00
71772;BME280;59606;52.138;5.424;2024-02-26T01:05:30;100114.63;;;4.77;100.00
71772;BME280;59606;52.138;5.424;2024-02-26T01:07:56;100117.25;;;4.76;100.00
71772;BME280;59606;52.138;5.424;2024-02-26T01:10:23;100133.56;;;4.76;100.00
71772;BME280;59606;52.138;5.424;2024-02-26T01:12:50;100122.41;;;4.76;100.00
71772;BME280;59606;52.138;5.424;2024-02-26T01:15:16;100119.09;;;4.73;100.00
71772;BME280;59606;52.138;5.424;2024-02-26T01:17:45;100115.69;;;4.73;100.00
71772;BME280;59606;52.138;5.424;2024-02-26T01:20:12;100108.06;;;4.70;100.00
71772;BME280;59606;52.138;5.424;2024-02-26T01:22:38;100111.41;;;4.72;100.00
71772;BME280;59606;52.138;5.424;2024-02-26T01:25:07;100117.47;;;4.71;100.00
71772;BME280;59606;52.138;5.424;2024-02-26T01:27:34;100115.94;;;4.67;100.00
71772;BME280;59606;52.138;5.424;2024-02-26T01:30:04;100126.16;;;4.68;100.00
71772;BME280;59606;52.138;5.424;2024-02-26T01:32:31;100115.00;;;4.68;100.00
71772;BME280;59606;52.138;5.424;2024-02-26T01:34:58;100115.94;;;4.67;100.00
71772;BME280;59606;52.138;5.424;2024-02-26T01:37:24;100104.69;;;4.68;100.00
71772;BME280;59606;52.138;5.424;2024-02-26T01:39:51;100098.75;;;4.66;100.00
71772;BME280;59606;52.138;5.424;2024-02-26T01:42:18;100102.19;;;4.66;100.00
71772;BME280;59606;52.138;5.424;2024-02-26T01:44:46;100103.06;;;4.65;100.00
71772;BME280;59606;52.138;5.424;2024-02-26T01:47:13;100096.25;;;4.64;100.00
71772;BME280;59606;52.138;5.424;2024-02-26T01:49:40;100106.50;;;4.66;100.00
71772;BME280;59606;52.138;5.424;2024-02-26T01:52:08;100103.78;;;4.69;100.00
71772;BME280;59606;52.138;5.424;2024-02-26T01:54:37;100100.38;;;4.68;100.00
71772;BME280;59606;52.138;5.424;2024-02-26T01:57:05;100109.81;;;4.69;100.00
71772;BME280;59606;52.138;5.424;2024-02-26T01:59:32;100118.25;;;4.73;100.00
71772;BME280;59606;52.138;5.424;2024-02-26T02:02:01;100115.69;;;4.73;100.00
71772;BME280;59606;52.138;5.424;2024-02-26T02:04:29;100112.31;;;4.71;100.00
71772;BME280;59606;52.138;5.424;2024-02-26T02:06:58;100113.00;;;4.75;100.00
71772;BME280;59606;52.138;5.424;2024-02-26T02:09:27;100125.78;;;4.78;100.00
71772;BME280;59606;52.138;5.424;2024-02-26T02:11:54;100125.72;;;4.79;100.00
71772;BME280;59606;52.138;5.424;2024-02-26T02:14:22;100124.88;;;4.79;100.00
71772;BME280;59606;52.138;5.424;2024-02-26T02:16:48;100128.16;;;4.82;100.00
71772;BME280;59606;52.138;5.424;2024-02-26T02:19:15;100129.06;;;4.81;100.00
71772;BME280;59606;52.138;5.424;2024-02-26T02:21:42;100129.91;;;4.82;100.00
71772;BME280;59606;52.138;5.424;2024-02-26T02:24:08;100132.38;;;4.85;100.00
71772;BME280;59606;52.138;5.424;2024-02-26T02:26:37;100136.69;;;4.84;100.00
71772;BME280;59606;52.138;5.424;2024-02-26T02:29:04;100147.00;;;4.84;100.00
71772;BME280;59606;52.138;5.424;2024-02-26T02:31:36;100137.53;;;4.85;100.00
71772;BME280;59606;52.138;5.424;2024-02-26T02:34:03;100132.38;;;4.85;100.00
71772;BME280;59606;52.138;5.424;2024-02-26T02:36:29;100137.47;;;4.86;100.00
71772;BME280;59606;52.138;5.424;2024-02-26T02:38:56;100138.34;;;4.85;100.00
71772;BME280;59606;52.138;5.424;2024-02-26T02:41:23;100149.47;;;4.87;100.00
71772;BME280;59606;52.138;5.424;2024-02-26T02:43:50;100152.03;;;4.87;100.00
71772;BME280;59606;52.138;5.424;2024-02-26T02:46:16;100152.88;;;4.88;100.00
71772;BME280;59606;52.138;5.424;2024-02-26T02:48:43;100160.53;;;4.89;100.00
71772;BME280;59606;52.138;5.424;2024-02-26T02:51:11;100166.56;;;4.90;100.00
71772;BME280;59606;52.138;5.424;2024-02-26T02:53:37;100167.41;;;4.90;100.00
71772;BME280;59606;52.138;5.424;2024-02-26T02:56:04;100163.06;;;4.91;100.00
71772;BME280;59606;52.138;5.424;2024-02-26T02:58:31;100164.03;;;4.88;100.00
71772;BME280;59606;52.138;5.424;2024-02-26T03:01:06;100172.63;;;4.89;100.00
71772;BME280;59606;52.138;5.424;2024-02-26T03:03:49;100169.97;;;4.90;100.00
71772;BME280;59606;52.138;5.424;2024-02-26T03:06:16;100175.16;;;4.90;100.00
71772;BME280;59606;52.138;5.424;2024-02-26T03:08:42;100185.41;;;4.92;100.00
71772;BME280;59606;52.138;5.424;2024-02-26T03:11:13;100186.34;;;4.89;100.00
71772;BME280;59606;52.138;5.424;2024-02-26T03:13:41;100189.72;;;4.91;100.00
71772;BME280;59606;52.138;5.424;2024-02-26T03:16:08;100193.25;;;4.89;100.00
71772;BME280;59606;52.138;5.424;2024-02-26T03:18:35;100194.97;;;4.90;100.00
71772;BME280;59606;52.138;5.424;2024-02-26T03:21:02;100200.97;;;4.90;100.00
71772;BME280;59606;52.138;5.424;2024-02-26T03:23:29;100196.75;;;4.88;100.00
71772;BME280;59606;52.138;5.424;2024-02-26T03:25:58;100203.59;;;4.89;100.00
71772;BME280;59606;52.138;5.424;2024-02-26T03:28:24;100206.25;;;4.87;100.00
71772;BME280;59606;52.138;5.424;2024-02-26T03:30:51;100211.31;;;4.89;100.00
71772;BME280;59606;52.138;5.424;2024-02-26T03:33:18;100210.56;;;4.87;100.00
71772;BME280;59606;52.138;5.424;2024-02-26T03:35:44;100219.91;;;4.89;100.00
71772;BME280;59606;52.138;5.424;2024-02-26T03:38:11;100216.63;;;4.86;100.00
71772;BME280;59606;52.138;5.424;2024-02-26T03:40:38;100217.47;;;4.86;100.00
71772;BME280;59606;52.138;5.424;2024-02-26T03:43:04;100220.91;;;4.87;100.00
71772;BME280;59606;52.138;5.424;2024-02-26T03:45:33;100212.44;;;4.83;100.00
71772;BME280;59606;52.138;5.424;2024-02-26T03:48:00;100220.09;;;4.85;100.00
71772;BME280;59606;52.138;5.424;2024-02-26T03:50:26;100228.69;;;4.85;100.00
71772;BME280;59606;52.138;5.424;2024-02-26T03:52:53;100227.00;;;4.84;100.00
71772;BME280;59606;52.138;5.424;2024-02-26T03:55:22;100220.22;;;4.82;100.00
71772;BME280;59606;52.138;5.424;2024-02-26T03:57:53;100222.06;;;4.80;100.00
71772;BME280;59606;52.138;5.424;2024-02-26T04:00:20;100226.22;;;4.82;100.00
71772;BME280;59606;52.138;5.424;2024-02-26T04:02:48;100221.00;;;4.84;100.00
71772;BME280;59606;52.138;5.424;2024-02-26T04:05:15;100215.97;;;4.81;100.00
71772;BME280;59606;52.138;5.424;2024-02-26T04:07:42;100218.59;;;4.79;100.00
71772;BME280;59606;52.138;5.424;2024-02-26T04:10:12;100222.88;;;4.80;100.00
71772;BME280;59606;52.138;5.424;2024-02-26T04:12:39;100229.78;;;4.80;100.00
71772;BME280;59606;52.138;5.424;2024-02-26T04:15:10;100232.22;;;4.83;100.00
71772;BME280;59606;52.138;5.424;2024-02-26T04:17:37;100232.28;;;4.81;100.00
71772;BME280;59606;52.138;5.424;2024-02-26T04:20:05;100232.22;;;4.83;100.00
71772;BME280;59606;52.138;5.424;2024-02-26T04:22:33;100236.63;;;4.81;100.00
71772;BME280;59606;52.138;5.424;2024-02-26T04:25:00;100238.28;;;4.82;100.00
71772;BME280;59606;52.138;5.424;2024-02-26T04:27:52;100234.88;;;4.81;100.00
71772;BME280;59606;52.138;5.424;2024-02-26T04:30:22;100237.53;;;4.80;100.00
71772;BME280;59606;52.138;5.424;2024-02-26T04:32:49;100247.72;;;4.83;100.00
71772;BME280;59606;52.138;5.424;2024-02-26T04:35:16;100254.56;;;4.84;100.00
71772;BME280;59606;52.138;5.424;2024-02-26T04:37:42;100245.19;;;4.81;100.00
71772;BME280;59606;52.138;5.424;2024-02-26T04:40:09;100252.88;;;4.83;100.00
71772;BME280;59606;52.138;5.424;2024-02-26T04:42:36;100258.91;;;4.83;100.00
71772;BME280;59606;52.138;5.424;2024-02-26T04:45:02;100258.94;;;4.82;100.00
71772;BME280;59606;52.138;5.424;2024-02-26T04:47:29;100253.03;;;4.80;100.00
71772;BME280;59606;52.138;5.424;2024-02-26T04:49:56;100251.19;;;4.82;100.00
71772;BME280;59606;52.138;5.424;2024-02-26T04:52:23;100258.81;;;4.85;100.00
71772;BME280;59606;52.138;5.424;2024-02-26T04:54:50;100262.34;;;4.82;100.00
71772;BME280;59606;52.138;5.424;2024-02-26T04:57:19;100263.19;;;4.83;100.00
71772;BME280;59606;52.138;5.424;2024-02-26T04:59:52;100267.50;;;4.82;100.00
71772;BME280;59606;52.138;5.424;2024-02-26T05:02:18;100264.06;;;4.83;100.00
71772;BME280;59606;52.138;5.424;2024-02-26T05:04:45;100261.47;;;4.83;100.00
71772;BME280;59606;52.138;5.424;2024-02-26T05:07:11;100261.47;;;4.83;100.00
71772;BME280;59606;52.138;5.424;2024-02-26T05:09:40;100272.63;;;4.84;100.00
71772;BME280;59606;52.138;5.424;2024-02-26T05:12:06;100274.38;;;4.83;100.00
71772;BME280;59606;52.138;5.424;2024-02-26T05:14:34;100282.00;;;4.86;100.00
71772;BME280;59606;52.138;5.424;2024-02-26T05:17:01;100276.09;;;4.83;100.00
71772;BME280;59606;52.138;5.424;2024-02-26T05:19:27;100268.34;;;4.83;100.00
71772;BME280;59606;52.138;5.424;2024-02-26T05:21:54;100274.31;;;4.85;100.00
71772;BME280;59606;52.138;5.424;2024-02-26T05:24:21;100275.22;;;4.84;100.00
71772;BME280;59606;52.138;5.424;2024-02-26T05:26:49;100276.09;;;4.83;100.00
71772;BME280;59606;52.138;5.424;2024-02-26T05:29:16;100275.25;;;4.82;100.00
71772;BME280;59606;52.138;5.424;2024-02-26T05:31:43;100269.25;;;4.82;100.00
71772;BME280;59606;52.138;5.424;2024-02-26T05:34:09;100282.94;;;4.84;100.00
71772;BME280;59606;52.138;5.424;2024-02-26T05:36:36;100287.31;;;4.82;100.00
71772;BME280;59606;52.138;5.424;2024-02-26T05:39:03;100286.50;;;4.81;100.00
71772;BME280;59606;52.138;5.424;2024-02-26T05:41:30;100279.69;;;4.79;100.00
71772;BME280;59606;52.138;5.424;2024-02-26T05:43:58;100290.03;;;4.79;100.00
71772;BME280;59606;52.138;5.424;2024-02-26T05:46:25;100300.22;;;4.82;100.00
71772;BME280;59606;52.138;5.424;2024-02-26T05:48:53;100301.97;;;4.81;100.00
71772;BME280;59606;52.138;5.424;2024-02-26T05:51:20;100301.25;;;4.78;100.00
71772;BME280;59606;52.138;5.424;2024-02-26T05:53:47;100307.25;;;4.78;100.00
71772;BME280;59606;52.138;5.424;2024-02-26T05:56:23;100309.84;;;4.78;100.00
71772;BME280;59606;52.138;5.424;2024-02-26T05:58:50;100304.66;;;4.78;100.00
71772;BME280;59606;52.138;5.424;2024-02-26T06:01:17;100315.84;;;4.79;100.00
71772;BME280;59606;52.138;5.424;2024-02-26T06:03:44;100313.25;;;4.79;100.00
71772;BME280;59606;52.138;5.424;2024-02-26T06:06:11;100324.47;;;4.78;100.00
71772;BME280;59606;52.138;5.424;2024-02-26T06:08:38;100311.56;;;4.78;100.00
71772;BME280;59606;52.138;5.424;2024-02-26T06:11:06;100322.75;;;4.78;100.00
71772;BME280;59606;52.138;5.424;2024-02-26T06:13:36;100318.41;;;4.79;100.00
71772;BME280;59606;52.138;5.424;2024-02-26T06:16:03;100321.00;;;4.79;100.00
71772;BME280;59606;52.138;5.424;2024-02-26T06:18:30;100323.56;;;4.79;100.00
71772;BME280;59606;52.138;5.424;2024-02-26T06:21:00;100331.28;;;4.80;100.00
71772;BME280;59606;52.138;5.424;2024-02-26T06:23:30;100338.19;;;4.80;100.00
71772;BME280;59606;52.138;5.424;2024-02-26T06:26:05;100340.69;;;4.81;100.00
71772;BME280;59606;52.138;5.424;2024-02-26T06:28:32;100344.09;;;4.82;100.00
71772;BME280;59606;52.138;5.424;2024-02-26T06:31:04;100340.69;;;4.81;100.00
71772;BME280;59606;52.138;5.424;2024-02-26T06:33:31;100344.94;;;4.82;100.00
71772;BME280;59606;52.138;5.424;2024-02-26T06:36:01;100340.59;;;4.83;100.00
71772;BME280;59606;52.138;5.424;2024-02-26T06:38:31;100345.84;;;4.81;100.00
71772;BME280;59606;52.138;5.424;2024-02-26T06:41:08;100354.38;;;4.83;100.00
71772;BME280;59606;52.138;5.424;2024-02-26T06:43:35;100352.63;;;4.84;100.00
71772;BME280;59606;52.138;5.424;2024-02-26T06:46:06;100359.53;;;4.83;100.00
71772;BME280;59606;52.138;5.424;2024-02-26T06:48:35;100358.69;;;4.83;100.00
71772;BME280;59606;52.138;5.424;2024-02-26T06:51:03;100366.41;;;4.83;100.00
71772;BME280;59606;52.138;5.424;2024-02-26T06:53:30;100381.91;;;4.83;100.00
71772;BME280;59606;52.138;5.424;2024-02-26T06:55:57;100377.59;;;4.83;100.00
71772;BME280;59606;52.138;5.424;2024-02-26T06:58:30;100380.19;;;4.83;100.00
71772;BME280;59606;52.138;5.424;2024-02-26T07:00:56;100378.44;;;4.84;100.00
71772;BME280;59606;52.138;5.424;2024-02-26T07:03:30;100381.03;;;4.84;100.00
71772;BME280;59606;52.138;5.424;2024-02-26T07:05:57;100377.53;;;4.85;100.00
71772;BME280;59606;52.138;5.424;2024-02-26T07:08:26;100386.09;;;4.85;100.00
71772;BME280;59606;52.138;5.424;2024-02-26T07:11:08;100384.38;;;4.86;100.00
71772;BME280;59606;52.138;5.424;2024-02-26T07:13:35;100392.09;;;4.86;100.00
71772;BME280;59606;52.138;5.424;2024-02-26T07:16:05;100400.66;;;4.88;100.00
71772;BME280;59606;52.138;5.424;2024-02-26T07:18:32;100402.31;;;4.89;100.00
71772;BME280;59606;52.138;5.424;2024-02-26T07:21:08;100397.22;;;4.87;100.00
71772;BME280;59606;52.138;5.424;2024-02-26T07:23:35;100405.72;;;4.89;100.00
71772;BME280;59606;52.138;5.424;2024-02-26T07:26:03;100406.63;;;4.88;100.00
71772;BME280;59606;52.138;5.424;2024-02-26T07:28:29;100416.94;;;4.90;100.00
71772;BME280;59606;52.138;5.424;2024-02-26T07:30:56;100422.00;;;4.91;100.00
71772;BME280;59606;52.138;5.424;2024-02-26T07:33:29;100416.84;;;4.91;100.00
71772;BME280;59606;52.138;5.424;2024-02-26T07:35:58;100416.84;;;4.91;100.00
71772;BME280;59606;52.138;5.424;2024-02-26T07:38:32;100417.66;;;4.93;100.00
71772;BME280;59606;52.138;5.424;2024-02-26T07:41:09;100423.66;;;4.94;100.00
71772;BME280;59606;52.138;5.424;2024-02-26T07:43:36;100422.81;;;4.93;100.00
71772;BME280;59606;52.138;5.424;2024-02-26T07:46:05;100418.41;;;4.95;100.00
71772;BME280;59606;52.138;5.424;2024-02-26T07:48:31;100417.56;;;4.95;100.00
71772;BME280;59606;52.138;5.424;2024-02-26T07:51:05;100436.38;;;4.99;100.00
71772;BME280;59606;52.138;5.424;2024-02-26T07:53:35;100423.53;;;4.97;100.00
71772;BME280;59606;52.138;5.424;2024-02-26T07:56:02;100439.91;;;4.96;100.00
71772;BME280;59606;52.138;5.424;2024-02-26T07:58:29;100445.84;;;4.98;100.00
71772;BME280;59606;52.138;5.424;2024-02-26T08:00:56;100442.38;;;4.99;100.00
71772;BME280;59606;52.138;5.424;2024-02-26T08:03:26;100454.41;;;5.00;100.00
71772;BME280;59606;52.138;5.424;2024-02-26T08:05:57;100455.22;;;5.01;100.00
71772;BME280;59606;52.138;5.424;2024-02-26T08:08:29;100465.44;;;5.04;100.00
71772;BME280;59606;52.138;5.424;2024-02-26T08:10:56;100463.63;;;5.06;100.00
71772;BME280;59606;52.138;5.424;2024-02-26T08:13:30;100464.53;;;5.05;100.00
71772;BME280;59606;52.138;5.424;2024-02-26T08:15:58;100469.63;;;5.06;100.00
71772;BME280;59606;52.138;5.424;2024-02-26T08:18:29;100474.66;;;5.09;100.00
71772;BME280;59606;52.138;5.424;2024-02-26T08:21:03;100476.41;;;5.09;100.00
71772;BME280;59606;52.138;5.424;2024-02-26T08:23:30;100476.38;;;5.10;100.00
71772;BME280;59606;52.138;5.424;2024-02-26T08:25:58;100485.72;;;5.13;100.00
71772;BME280;59606;52.138;5.424;2024-02-26T08:28:34;100484.06;;;5.12;100.00
71772;BME280;59606;52.138;5.424;2024-02-26T08:31:02;100478.84;;;5.13;100.00
71772;BME280;59606;52.138;5.424;2024-02-26T08:33:30;100496.00;;;5.14;100.00
71772;BME280;59606;52.138;5.424;2024-02-26T08:36:06;100496.06;;;5.13;100.00
71772;BME280;59606;52.138;5.424;2024-02-26T08:38:34;100493.44;;;5.14;100.00
71772;BME280;59606;52.138;5.424;2024-02-26T08:41:02;100495.22;;;5.12;100.00
71772;BME280;59606;52.138;5.424;2024-02-26T08:43:29;100500.38;;;5.12;100.00
71772;BME280;59606;52.138;5.424;2024-02-26T08:45:56;100504.66;;;5.13;100.00
71772;BME280;59606;52.138;5.424;2024-02-26T08:48:27;100505.53;;;5.12;100.00
71772;BME280;59606;52.138;5.424;2024-02-26T08:51:07;100506.38;;;5.13;100.00
71772;BME280;59606;52.138;5.424;2024-02-26T08:53:35;100507.13;;;5.16;100.00
71772;BME280;59606;52.138;5.424;2024-02-26T08:56:09;100515.72;;;5.17;100.00
71772;BME280;59606;52.138;5.424;2024-02-26T08:58:37;100514.88;;;5.16;100.00
71772;BME280;59606;52.138;5.424;2024-02-26T09:01:04;100528.66;;;5.15;100.00
71772;BME280;59606;52.138;5.424;2024-02-26T09:03:30;100522.63;;;5.16;100.00
71772;BME280;59606;52.138;5.424;2024-02-26T09:06:02;100533.84;;;5.15;100.00
71772;BME280;59606;52.138;5.424;2024-02-26T09:08:29;100536.50;;;5.14;100.00
71772;BME280;59606;52.138;5.424;2024-02-26T09:10:56;100537.38;;;5.13;100.00
71772;BME280;59606;52.138;5.424;2024-02-26T09:13:23;100538.22;;;5.13;100.00
71772;BME280;59606;52.138;5.424;2024-02-26T09:15:50;100537.44;;;5.11;100.00
71772;BME280;59606;52.138;5.424;2024-02-26T09:18:22;100545.97;;;5.13;100.00
71772;BME280;59606;52.138;5.424;2024-02-26T09:20:50;100551.97;;;5.14;100.00
71772;BME280;59606;52.138;5.424;2024-02-26T09:23:28;100541.69;;;5.12;100.00
71772;BME280;59606;52.138;5.424;2024-02-26T09:25:59;100552.94;;;5.11;100.00
71772;BME280;59606;52.138;5.424;2024-02-26T09:28:28;100554.59;;;5.12;100.00
71772;BME280;59606;52.138;5.424;2024-02-26T09:30:58;100558.94;;;5.12;100.00
71772;BME280;59606;52.138;5.424;2024-02-26T09:33:33;100560.59;;;5.13;100.00
71772;BME280;59606;52.138;5.424;2024-02-26T09:36:00;100570.94;;;5.13;100.00
71772;BME280;59606;52.138;5.424;2024-02-26T09:38:28;100562.34;;;5.12;100.00
71772;BME280;59606;52.138;5.424;2024-02-26T09:41:02;100573.59;;;5.11;100.00
71772;BME280;59606;52.138;5.424;2024-02-26T09:43:34;100577.00;;;5.12;100.00
71772;BME280;59606;52.138;5.424;2024-02-26T09:46:02;100572.63;;;5.14;100.00
71772;BME280;59606;52.138;5.424;2024-02-26T09:48:32;100580.31;;;5.15;100.00
71772;BME280;59606;52.138;5.424;2024-02-26T09:51:03;100586.38;;;5.14;100.00
71772;BME280;59606;52.138;5.424;2024-02-26T09:53:31;100582.91;;;5.15;100.00
71772;BME280;59606;52.138;5.424;2024-02-26T09:56:06;100584.59;;;5.16;100.00
71772;BME280;59606;52.138;5.424;2024-02-26T09:58:34;100581.16;;;5.16;100.00
71772;BME280;59606;52.138;5.424;2024-02-26T10:01:13;100592.38;;;5.15;100.00
71772;BME280;59606;52.138;5.424;2024-02-26T10:03:57;100597.50;;;5.16;100.00
71772;BME280;59606;52.138;5.424;2024-02-26T10:06:27;100597.34;;;5.21;100.00
71772;BME280;59606;52.138;5.424;2024-02-26T10:08:56;100604.97;;;5.24;100.00
71772;BME280;59606;52.138;5.424;2024-02-26T10:11:27;100610.13;;;5.24;100.00
71772;BME280;59606;52.138;5.424;2024-02-26T10:13:54;100610.13;;;5.24;100.00
71772;BME280;59606;52.138;5.424;2024-02-26T10:16:20;100617.06;;;5.24;100.00
71772;BME280;59606;52.138;5.424;2024-02-26T10:18:48;100616.97;;;5.25;100.00
71772;BME280;59606;52.138;5.424;2024-02-26T10:21:25;100613.56;;;5.25;100.00
71772;BME280;59606;52.138;5.424;2024-02-26T10:23:52;100616.16;;;5.25;100.00
71772;BME280;59606;52.138;5.424;2024-02-26T10:26:19;100618.66;;;5.26;100.00
71772;BME280;59606;52.138;5.424;2024-02-26T10:28:46;100622.88;;;5.29;100.00
71772;BME280;59606;52.138;5.424;2024-02-26T10:31:18;100633.16;;;5.30;100.00
71772;BME280;59606;52.138;5.424;2024-02-26T10:33:45;100642.47;;;5.34;100.00
71772;BME280;59606;52.138;5.424;2024-02-26T10:36:12;100642.41;;;5.36;100.00
71772;BME280;59606;52.138;5.424;2024-02-26T10:38:39;100651.19;;;5.32;100.00
71772;BME280;59606;52.138;5.424;2024-02-26T10:41:06;100650.22;;;5.34;100.00
71772;BME280;59606;52.138;5.424;2024-02-26T10:43:33;100663.06;;;5.36;100.00
71772;BME280;59606;52.138;5.424;2024-02-26T10:46:01;100651.19;;;5.32;100.00
71772;BME280;59606;52.138;5.424;2024-02-26T10:48:28;100658.75;;;5.36;100.00
71772;BME280;59606;52.138;5.424;2024-02-26T10:50:58;100659.53;;;5.38;100.00
71772;BME280;59606;52.138;5.424;2024-02-26T10:53:29;100668.09;;;5.40;100.00
71772;BME280;59606;52.138;5.424;2024-02-26T10:56:04;100674.94;;;5.41;100.00
71772;BME280;59606;52.138;5.424;2024-02-26T10:58:32;100681.78;;;5.42;100.00
71772;BME280;59606;52.138;5.424;2024-02-26T11:01:05;100680.00;;;5.44;100.00
71772;BME280;59606;52.138;5.424;2024-02-26T11:03:33;100689.38;;;5.47;100.00
71772;BME280;59606;52.138;5.424;2024-02-26T11:06:03;100689.28;;;5.50;100.00
71772;BME280;59606;52.138;5.424;2024-02-26T11:08:30;100691.00;;;5.50;100.00
71772;BME280;59606;52.138;5.424;2024-02-26T11:11:00;100706.47;;;5.51;100.00
71772;BME280;59606;52.138;5.424;2024-02-26T11:13:30;100691.78;;;5.52;100.00
71772;BME280;59606;52.138;5.424;2024-02-26T11:16:01;100698.75;;;5.50;100.00
71772;BME280;59606;52.138;5.424;2024-02-26T11:18:29;100697.88;;;5.51;100.00
71772;BME280;59606;52.138;5.424;2024-02-26T11:21:02;100708.94;;;5.54;100.00
71772;BME280;59606;52.138;5.424;2024-02-26T11:23:30;100706.28;;;5.56;100.00
71772;BME280;59606;52.138;5.424;2024-02-26T11:26:02;100705.34;;;5.58;100.00
71772;BME280;59606;52.138;5.424;2024-02-26T11:28:32;100704.59;;;5.55;100.00
71772;BME280;59606;52.138;5.424;2024-02-26T11:31:05;100712.41;;;5.53;100.00
71772;BME280;59606;52.138;5.424;2024-02-26T11:33:34;100716.72;;;5.53;100.00
71772;BME280;59606;52.138;5.424;2024-02-26T11:36:08;100715.78;;;5.55;100.00
71772;BME280;59606;52.138;5.424;2024-02-26T11:38:37;100721.69;;;5.59;100.00
71772;BME280;59606;52.138;5.424;2024-02-26T11:41:07;100720.00;;;5.58;100.00
71772;BME280;59606;52.138;5.424;2024-02-26T11:46:32;100735.50;;;5.58;100.00
71772;BME280;59606;52.138;5.424;2024-02-26T11:49:01;100732.91;;;5.58;100.00
71772;BME280;59606;52.138;5.424;2024-02-26T11:51:33;100742.41;;;5.57;100.00
71772;BME280;59606;52.138;5.424;2024-02-26T11:54:01;100733.81;;;5.57;100.00
71772;BME280;59606;52.138;5.424;2024-02-26T11:56:28;100742.41;;;5.57;100.00
71772;BME280;59606;52.138;5.424;2024-02-26T11:59:05;100745.00;;;5.57;100.00
71772;BME280;59606;52.138;5.424;2024-02-26T12:01:47;100754.34;;;5.60;100.00
71772;BME280;59606;52.138;5.424;2024-02-26T12:04:17;100748.25;;;5.62;100.00
71772;BME280;59606;52.138;5.424;2024-02-26T12:06:51;100751.56;;;5.66;100.00
71772;BME280;59606;52.138;5.424;2024-02-26T12:09:50;100760.13;;;5.68;100.00
71772;BME280;59606;52.138;5.424;2024-02-26T12:12:18;100759.28;;;5.67;100.00
71772;BME280;59606;52.138;5.424;2024-02-26T12:14:55;100757.53;;;5.68;100.00
71772;BME280;59606;52.138;5.424;2024-02-26T12:17:25;100771.13;;;5.73;100.00
71772;BME280;59606;52.138;5.424;2024-02-26T12:19:52;100770.16;;;5.76;100.00
71772;BME280;59606;52.138;5.424;2024-02-26T12:22:20;100782.25;;;5.75;100.00
71772;BME280;59606;52.138;5.424;2024-02-26T12:24:47;100771.81;;;5.78;100.00
71772;BME280;59606;52.138;5.424;2024-02-26T12:27:14;100775.19;;;5.80;100.00
71772;BME280;59606;52.138;5.424;2024-02-26T12:29:43;100784.78;;;5.77;100.00
71772;BME280;59606;52.138;5.424;2024-02-26T12:32:10;100790.75;;;5.79;100.00
71772;BME280;59606;52.138;5.424;2024-02-26T12:34:37;100775.31;;;5.77;100.00
71772;BME280;59606;52.138;5.424;2024-02-26T12:37:04;100789.09;;;5.76;100.00
71772;BME280;59606;52.138;5.424;2024-02-26T12:39:31;100793.50;;;5.74;100.00
71772;BME280;59606;52.138;5.424;2024-02-26T12:41:58;100788.34;;;5.74;100.00
71772;BME280;59606;52.138;5.424;2024-02-26T12:44:26;100796.03;;;5.76;100.00
71772;BME280;59606;52.138;5.424;2024-02-26T12:47:03;100800.25;;;5.78;100.00
71772;BME280;59606;52.138;5.424;2024-02-26T12:49:30;100796.75;;;5.79;100.00
71772;BME280;59606;52.138;5.424;2024-02-26T12:51:57;100800.13;;;5.81;100.00
71772;BME280;59606;52.138;5.424;2024-02-26T12:54:31;100803.56;;;5.82;100.00
71772;BME280;59606;52.138;5.424;2024-02-26T12:57:04;100808.56;;;5.86;100.00
71772;BME280;59606;52.138;5.424;2024-02-26T12:59:34;100811.25;;;5.83;100.00
71772;BME280;59606;52.138;5.424;2024-02-26T13:02:02;100821.56;;;5.85;100.00